createdAt,value
2019-03-25T00:01:22.163Z,2.52
2019-03-25T00:03:54.887Z,2.56
2019-03-25T00:06:27.565Z,2.60
2019-03-25T00:09:05.300Z,2.60
2019-03-25T00:11:35.686Z,2.65
2019-03-25T00:14:08.369Z,2.55
2019-03-25T00:16:40.954Z,2.54
2019-03-25T00:19:13.077Z,2.52
2019-03-25T00:21:45.799Z,2.54
2019-03-25T00:24:18.365Z,2.55
2019-03-25T00:26:50.535Z,2.52
2019-03-25T00:29:23.113Z,2.49
2019-03-25T00:31:55.691Z,2.48
2019-03-25T00:34:28.170Z,2.45
2019-03-25T00:37:00.698Z,2.38
2019-03-25T00:39:33.226Z,2.32
2019-03-25T00:42:05.799Z,2.26
2019-03-25T00:44:38.376Z,2.22
2019-03-25T00:47:11.611Z,2.23
2019-03-25T00:49:44.044Z,2.22
2019-03-25T00:52:16.619Z,2.19
2019-03-25T00:54:50.403Z,2.11
2019-03-25T00:57:23.105Z,2.04
2019-03-25T00:59:55.678Z,2.03
2019-03-25T01:02:28.249Z,1.96
2019-03-25T01:05:01.026Z,1.94
2019-03-25T01:07:33.714Z,1.84
2019-03-25T01:10:09.150Z,1.82
2019-03-25T01:12:41.728Z,1.73
2019-03-25T01:15:14.309Z,1.70
2019-03-25T01:17:46.467Z,1.67
2019-03-25T01:20:18.966Z,1.62
2019-03-25T01:22:51.526Z,1.59
2019-03-25T01:25:24.006Z,1.55
2019-03-25T01:27:56.577Z,1.56
2019-03-25T01:30:29.159Z,1.59
2019-03-25T01:33:01.731Z,1.61
2019-03-25T01:35:34.316Z,1.57
2019-03-25T01:38:06.890Z,1.58
2019-03-25T01:40:39.463Z,1.61
2019-03-25T01:43:12.037Z,1.60
2019-03-25T01:45:45.535Z,1.69
2019-03-25T01:48:18.119Z,1.76
2019-03-25T01:50:50.693Z,1.79
2019-03-25T01:53:23.376Z,1.81
2019-03-25T01:55:55.838Z,1.82
2019-03-25T01:58:28.421Z,1.86
2019-03-25T02:01:01.001Z,1.90
2019-03-25T02:03:33.579Z,1.94
2019-03-25T02:06:06.158Z,1.99
2019-03-25T02:08:38.735Z,2.01
2019-03-25T02:11:11.415Z,2.03
2019-03-25T02:13:43.991Z,2.02
2019-03-25T02:16:16.553Z,1.98
2019-03-25T02:18:49.142Z,2.01
2019-03-25T02:21:22.023Z,2.03
2019-03-25T02:23:54.602Z,2.01
2019-03-25T02:26:27.181Z,2.01
2019-03-25T02:28:59.762Z,1.99
2019-03-25T02:31:32.228Z,1.96
2019-03-25T02:34:04.801Z,1.93
2019-03-25T02:36:36.938Z,1.89
2019-03-25T02:39:09.446Z,1.81
2019-03-25T02:41:42.026Z,1.74
2019-03-25T02:44:14.592Z,1.68
2019-03-25T02:46:47.189Z,1.65
2019-03-25T02:49:21.305Z,1.59
2019-03-25T02:51:53.873Z,1.58
2019-03-25T02:54:26.452Z,1.57
2019-03-25T02:56:58.913Z,1.57
2019-03-25T02:59:31.494Z,1.53
2019-03-25T03:02:04.067Z,1.48
2019-03-25T03:04:36.646Z,1.45
2019-03-25T03:07:10.151Z,1.42
2019-03-25T03:09:42.797Z,1.42
2019-03-25T03:12:15.295Z,1.38
2019-03-25T03:14:47.880Z,1.38
2019-03-25T03:17:20.472Z,1.40
2019-03-25T03:19:55.240Z,1.41
2019-03-25T03:22:27.309Z,1.45
2019-03-25T03:24:59.855Z,1.45
2019-03-25T03:27:32.414Z,1.45
2019-03-25T03:30:06.149Z,1.42
2019-03-25T03:32:38.688Z,1.38
2019-03-25T03:35:11.376Z,1.31
2019-03-25T03:37:43.938Z,1.29
2019-03-25T03:40:16.614Z,1.28
2019-03-25T03:42:49.198Z,1.31
2019-03-25T03:45:21.761Z,1.29
2019-03-25T03:47:54.350Z,1.30
2019-03-25T03:50:28.467Z,1.28
2019-03-25T03:53:01.037Z,1.27
2019-03-25T03:55:34.118Z,1.29
2019-03-25T03:58:06.688Z,1.29
2019-03-25T04:00:39.272Z,1.30
2019-03-25T04:03:12.771Z,1.34
2019-03-25T04:05:44.907Z,1.36
2019-03-25T04:08:17.419Z,1.29
2019-03-25T04:10:49.989Z,1.29
2019-03-25T04:13:22.565Z,1.26
2019-03-25T04:15:55.152Z,1.22
2019-03-25T04:18:27.822Z,1.23
2019-03-25T04:21:00.411Z,1.23
2019-03-25T04:23:32.880Z,1.17
2019-03-25T04:26:05.460Z,1.15
2019-03-25T04:28:37.991Z,1.14
2019-03-25T04:31:10.713Z,1.11
2019-03-25T04:33:43.295Z,1.13
2019-03-25T04:36:15.862Z,1.16
2019-03-25T04:38:48.030Z,1.20
2019-03-25T04:41:20.598Z,1.23
2019-03-25T04:43:54.548Z,1.24
2019-03-25T04:46:26.888Z,1.26
2019-03-25T04:48:59.466Z,1.29
2019-03-25T04:51:32.042Z,1.27
2019-03-25T04:54:04.613Z,1.30
2019-03-25T04:56:39.937Z,1.34
2019-03-25T04:59:11.409Z,1.39
2019-03-25T05:01:43.898Z,1.44
2019-03-25T05:04:16.451Z,1.51
2019-03-25T05:06:48.569Z,1.58
2019-03-25T05:09:22.231Z,1.70
2019-03-25T05:11:54.697Z,1.79
2019-03-25T05:14:27.285Z,1.87
2019-03-25T05:16:59.799Z,1.96
2019-03-25T05:19:32.336Z,2.05
2019-03-25T05:22:04.905Z,2.18
2019-03-25T05:24:37.475Z,2.27
2019-03-25T05:27:10.063Z,2.42
2019-03-25T05:29:42.639Z,2.53
2019-03-25T05:32:15.101Z,2.62
2019-03-25T05:34:47.678Z,2.72
2019-03-25T05:37:20.268Z,2.79
2019-03-25T05:39:54.060Z,2.90
2019-03-25T05:42:26.539Z,3.00
2019-03-25T05:44:59.118Z,3.08
2019-03-25T05:47:31.906Z,3.13
2019-03-25T05:50:05.185Z,3.22
2019-03-25T05:52:37.769Z,3.28
2019-03-25T05:55:10.454Z,3.32
2019-03-25T05:57:43.025Z,3.42
2019-03-25T06:00:17.040Z,3.53
2019-03-25T06:02:49.696Z,3.67
2019-03-25T06:05:22.301Z,3.79
2019-03-25T06:07:54.873Z,3.87
2019-03-25T06:10:27.456Z,3.95
2019-03-25T06:13:00.021Z,4.03
2019-03-25T06:15:32.604Z,4.10
2019-03-25T06:18:05.185Z,4.13
2019-03-25T06:20:37.747Z,4.21
2019-03-25T06:23:11.352Z,4.31
2019-03-25T06:25:43.995Z,4.41
2019-03-25T06:28:16.571Z,4.55
2019-03-25T06:30:49.190Z,4.64
2019-03-25T06:33:21.761Z,4.68
2019-03-25T06:35:54.346Z,4.69
2019-03-25T06:38:26.914Z,4.57
2019-03-25T06:40:59.501Z,4.66
2019-03-25T06:43:32.073Z,4.71
2019-03-25T06:46:04.644Z,4.75
2019-03-25T06:48:38.160Z,4.76
2019-03-25T06:51:10.834Z,4.76
2019-03-25T06:53:43.007Z,4.65
2019-03-25T06:56:15.566Z,4.69
2019-03-25T06:58:48.152Z,4.75
2019-03-25T07:01:20.613Z,4.85
2019-03-25T07:03:53.194Z,4.82
2019-03-25T07:06:25.539Z,4.78
2019-03-25T07:08:58.149Z,4.89
2019-03-25T07:11:30.730Z,4.90
2019-03-25T07:14:03.618Z,4.92
2019-03-25T07:16:36.189Z,5.02
2019-03-25T07:19:08.864Z,4.96
2019-03-25T07:21:41.471Z,5.02
2019-03-25T07:24:14.123Z,5.01
2019-03-25T07:26:46.698Z,5.05
2019-03-25T07:29:21.118Z,5.05
2019-03-25T07:31:53.696Z,5.07
2019-03-25T07:34:26.265Z,5.18
2019-03-25T07:36:58.846Z,5.29
2019-03-25T07:39:31.269Z,5.38
2019-03-25T07:42:03.791Z,5.37
2019-03-25T07:44:36.376Z,5.36
2019-03-25T07:47:08.952Z,5.41
2019-03-25T07:49:41.521Z,5.56
2019-03-25T07:52:14.004Z,5.89
2019-03-25T07:54:46.577Z,6.08
2019-03-25T07:57:19.174Z,6.35
2019-03-25T07:59:51.725Z,6.14
2019-03-25T08:02:24.416Z,6.03
2019-03-25T08:04:57.102Z,6.00
2019-03-25T08:07:29.673Z,6.18
2019-03-25T08:10:02.683Z,6.22
2019-03-25T08:12:35.436Z,6.30
2019-03-25T08:15:09.764Z,6.24
2019-03-25T08:17:42.332Z,6.31
2019-03-25T08:20:16.226Z,6.38
2019-03-25T08:22:48.704Z,6.42
2019-03-25T08:25:21.289Z,6.36
2019-03-25T08:28:00.041Z,6.52
2019-03-25T08:30:27.700Z,6.50
2019-03-25T08:33:00.247Z,6.52
2019-03-25T08:35:33.944Z,6.77
2019-03-25T08:38:06.167Z,6.79
2019-03-25T08:40:38.794Z,7.20
2019-03-25T08:43:11.374Z,7.44
2019-03-25T08:45:43.949Z,7.44
2019-03-25T08:48:16.399Z,7.61
2019-03-25T08:50:48.999Z,7.65
2019-03-25T08:53:21.567Z,7.80
2019-03-25T08:55:54.159Z,7.62
2019-03-25T08:58:26.733Z,7.70
2019-03-25T09:00:59.313Z,8.73
2019-03-25T09:03:31.874Z,9.03
2019-03-25T09:06:04.047Z,8.78
2019-03-25T09:08:36.527Z,8.41
2019-03-25T09:11:09.162Z,8.53
2019-03-25T09:13:41.681Z,8.83
2019-03-25T09:16:14.308Z,8.77
2019-03-25T09:18:47.243Z,9.10
2019-03-25T09:21:19.823Z,9.03
2019-03-25T09:23:52.290Z,9.80
2019-03-25T09:26:24.920Z,9.50
2019-03-25T09:28:57.449Z,9.12
2019-03-25T09:31:36.848Z,9.07
2019-03-25T09:34:04.541Z,8.95
2019-03-25T09:36:37.125Z,9.27
2019-03-25T09:39:10.109Z,9.05
2019-03-25T09:41:42.690Z,9.55
2019-03-25T09:44:15.259Z,9.90
2019-03-25T09:46:47.943Z,9.98
2019-03-25T09:49:20.523Z,9.89
2019-03-25T09:51:54.219Z,10.46
2019-03-25T09:54:26.819Z,10.31
2019-03-25T09:56:59.378Z,10.19
2019-03-25T09:59:31.955Z,10.63
2019-03-25T10:02:04.524Z,10.76
2019-03-25T10:04:38.134Z,10.41
2019-03-25T10:07:15.277Z,10.37
2019-03-25T10:09:47.886Z,9.87
2019-03-25T10:12:20.469Z,9.75
2019-03-25T10:14:52.604Z,9.65
2019-03-25T10:17:25.217Z,9.82
2019-03-25T10:19:58.865Z,9.88
2019-03-25T10:22:31.594Z,10.08
2019-03-25T10:25:04.690Z,10.12
2019-03-25T10:27:37.733Z,9.65
2019-03-25T10:30:16.176Z,9.30
2019-03-25T10:32:48.756Z,9.52
2019-03-25T10:35:22.364Z,9.14
2019-03-25T10:37:54.942Z,9.58
2019-03-25T10:40:27.507Z,9.80
2019-03-25T10:43:00.498Z,9.56
2019-03-25T10:45:33.071Z,9.43
2019-03-25T10:48:05.651Z,10.30
2019-03-25T10:50:38.231Z,10.16
2019-03-25T10:53:10.879Z,9.75
2019-03-25T10:55:43.393Z,9.16
2019-03-25T10:58:15.557Z,8.96
2019-03-25T11:00:48.644Z,8.76
2019-03-25T11:03:21.213Z,8.34
2019-03-25T11:05:53.797Z,8.30
2019-03-25T11:08:26.379Z,8.05
2019-03-25T11:10:58.945Z,8.02
2019-03-25T11:13:31.522Z,7.78
2019-03-25T11:16:04.408Z,7.82
2019-03-25T11:18:38.218Z,7.67
2019-03-25T11:21:10.795Z,7.51
2019-03-25T11:23:43.370Z,7.48
2019-03-25T11:26:15.940Z,6.93
2019-03-25T11:28:48.518Z,7.03
2019-03-25T11:31:20.985Z,7.05
2019-03-25T11:33:55.105Z,6.74
2019-03-25T11:36:27.733Z,6.62
2019-03-25T11:38:59.890Z,6.47
2019-03-25T11:41:32.434Z,6.35
2019-03-25T11:44:05.413Z,6.34
2019-03-25T11:46:37.527Z,6.19
2019-03-25T11:49:10.049Z,6.12
2019-03-25T11:51:42.524Z,6.17
2019-03-25T11:54:15.112Z,6.20
2019-03-25T11:56:47.681Z,5.88
2019-03-25T11:59:20.266Z,5.49
2019-03-25T12:01:52.840Z,4.91
2019-03-25T12:04:25.407Z,4.60
2019-03-25T12:06:58.506Z,4.51
2019-03-25T12:09:31.085Z,4.41
2019-03-25T12:12:03.551Z,4.22
2019-03-25T12:14:36.129Z,4.21
2019-03-25T12:17:08.709Z,4.14
2019-03-25T12:19:41.289Z,4.20
2019-03-25T12:22:14.781Z,4.16
2019-03-25T12:24:47.663Z,4.47
2019-03-25T12:27:20.582Z,4.48
2019-03-25T12:29:53.337Z,4.50
2019-03-25T12:32:25.915Z,4.58
2019-03-25T12:34:58.492Z,4.66
2019-03-25T12:37:32.493Z,4.72
2019-03-25T12:40:07.882Z,4.69
2019-03-25T12:42:40.926Z,4.58
2019-03-25T12:45:13.791Z,4.65
2019-03-25T12:47:45.929Z,4.69
2019-03-25T12:50:18.554Z,4.91
2019-03-25T12:52:51.133Z,4.87
2019-03-25T12:55:23.634Z,4.85
2019-03-25T12:57:55.762Z,4.65
2019-03-25T13:00:40.842Z,4.72
2019-03-25T13:03:13.310Z,4.74
2019-03-25T13:05:45.887Z,4.85
2019-03-25T13:08:18.473Z,4.78
2019-03-25T13:10:52.577Z,5.12
2019-03-25T13:13:25.157Z,4.99
2019-03-25T13:15:57.733Z,4.91
2019-03-25T13:18:30.316Z,5.02
2019-03-25T13:21:02.883Z,4.97
2019-03-25T13:23:35.368Z,5.05
2019-03-25T13:26:07.540Z,4.87
2019-03-25T13:28:39.998Z,4.91
2019-03-25T13:31:12.148Z,4.89
2019-03-25T13:33:44.678Z,4.71
2019-03-25T13:36:17.229Z,4.61
2019-03-25T13:38:50.829Z,4.53
2019-03-25T13:41:23.407Z,4.53
2019-03-25T13:43:55.987Z,4.51
2019-03-25T13:46:28.623Z,4.57
2019-03-25T13:49:01.137Z,4.56
2019-03-25T13:51:33.702Z,4.73
2019-03-25T13:54:07.088Z,4.78
2019-03-25T13:56:39.794Z,4.74
2019-03-25T13:59:12.359Z,4.84
2019-03-25T14:01:44.953Z,4.81
2019-03-25T14:04:17.409Z,4.75
2019-03-25T14:06:50.200Z,4.86
2019-03-25T14:09:22.772Z,4.97
2019-03-25T14:11:56.028Z,4.94
2019-03-25T14:14:28.168Z,4.86
2019-03-25T14:17:00.811Z,5.02
2019-03-25T14:19:33.394Z,5.17
2019-03-25T14:22:05.968Z,5.34
2019-03-25T14:24:38.535Z,5.41
2019-03-25T14:27:10.658Z,5.44
2019-03-25T14:29:43.177Z,5.46
2019-03-25T14:32:15.531Z,5.41
2019-03-25T14:34:48.126Z,5.51
2019-03-25T14:37:20.758Z,5.47
2019-03-25T14:39:53.388Z,5.60
2019-03-25T14:42:25.966Z,5.76
2019-03-25T14:44:58.537Z,5.79
2019-03-25T14:47:31.009Z,5.76
2019-03-25T14:50:03.591Z,5.85
2019-03-25T14:52:36.178Z,5.86
2019-03-25T14:55:09.354Z,5.83
2019-03-25T14:57:41.833Z,5.88
2019-03-25T15:00:24.712Z,5.89
2019-03-25T15:02:49.350Z,5.93
2019-03-25T15:05:21.910Z,5.82
2019-03-25T15:07:54.390Z,4.91
2019-03-25T15:10:29.783Z,4.30
2019-03-25T15:13:02.461Z,3.83
2019-03-25T15:15:34.994Z,3.54
2019-03-25T15:18:15.229Z,3.50
2019-03-25T15:20:41.586Z,3.58
2019-03-25T15:23:14.155Z,3.69
2019-03-25T15:25:46.835Z,3.82
2019-03-25T15:28:19.823Z,3.98
2019-03-25T15:30:52.398Z,3.98
2019-03-25T15:33:24.765Z,4.12
2019-03-25T15:35:57.341Z,4.36
2019-03-25T15:38:29.715Z,4.57
2019-03-25T15:41:02.294Z,4.83
2019-03-25T15:43:34.876Z,4.97
2019-03-25T15:46:07.451Z,5.60
2019-03-25T15:48:40.076Z,5.91
2019-03-25T15:51:13.837Z,5.63
2019-03-25T15:53:46.401Z,5.98
2019-03-25T15:56:18.978Z,6.11
2019-03-25T15:58:51.559Z,5.63
2019-03-25T16:01:25.053Z,5.60
2019-03-25T16:03:57.627Z,5.87
2019-03-25T16:06:30.208Z,5.71
2019-03-25T16:09:02.791Z,5.36
2019-03-25T16:11:35.678Z,5.33
2019-03-25T16:14:08.138Z,5.28
2019-03-25T16:16:40.726Z,5.29
2019-03-25T16:19:13.301Z,5.26
2019-03-25T16:21:45.885Z,5.30
2019-03-25T16:24:18.462Z,5.24
2019-03-25T16:26:51.035Z,5.22
2019-03-25T16:29:23.598Z,5.16
2019-03-25T16:31:56.187Z,5.02
2019-03-25T16:34:28.772Z,4.97
2019-03-25T16:37:02.777Z,4.96
2019-03-25T16:39:35.455Z,4.94
2019-03-25T16:42:08.032Z,4.88
2019-03-25T16:44:40.595Z,4.82
2019-03-25T16:47:13.177Z,4.78
2019-03-25T16:49:45.556Z,4.78
2019-03-25T16:52:18.126Z,4.72
2019-03-25T16:54:50.598Z,4.72
2019-03-25T16:57:23.170Z,4.75
2019-03-25T16:59:57.288Z,4.68
2019-03-25T17:02:29.865Z,4.67
2019-03-25T17:05:02.347Z,4.65
2019-03-25T17:07:35.220Z,4.65
2019-03-25T17:10:09.342Z,4.66
2019-03-25T17:12:41.503Z,4.66
2019-03-25T17:15:14.689Z,4.66
2019-03-25T17:17:47.971Z,4.66
2019-03-25T17:20:20.476Z,4.63
2019-03-25T17:22:53.048Z,4.64
2019-03-25T17:25:25.616Z,4.61
2019-03-25T17:27:58.198Z,4.61
2019-03-25T17:30:31.686Z,4.59
2019-03-25T17:33:04.276Z,4.59
2019-03-25T17:35:36.742Z,4.62
2019-03-25T17:38:09.383Z,4.61
2019-03-25T17:40:41.890Z,4.67
2019-03-25T17:43:14.473Z,4.65
2019-03-25T17:45:46.906Z,4.68
2019-03-25T17:48:19.530Z,4.71
2019-03-25T17:50:52.962Z,4.70
2019-03-25T17:53:25.323Z,4.75
2019-03-25T17:55:57.980Z,4.72
2019-03-25T17:58:30.553Z,4.72
2019-03-25T18:01:06.714Z,4.75
2019-03-25T18:03:38.864Z,4.75
2019-03-25T18:06:11.459Z,4.75
2019-03-25T18:08:44.030Z,4.74
2019-03-25T18:11:16.616Z,4.73
2019-03-25T18:13:49.181Z,4.74
2019-03-25T18:16:21.766Z,4.70
2019-03-25T18:18:54.441Z,4.71
2019-03-25T18:21:27.179Z,4.71
2019-03-25T18:24:01.734Z,4.71
2019-03-25T18:26:37.800Z,4.78
2019-03-25T18:29:10.376Z,4.81
2019-03-25T18:31:43.985Z,4.81
2019-03-25T18:34:16.660Z,4.79
2019-03-25T18:36:51.179Z,4.82
2019-03-25T18:39:23.760Z,4.86
2019-03-25T18:41:56.384Z,4.87
2019-03-25T18:44:29.013Z,4.79
2019-03-25T18:47:01.613Z,4.76
2019-03-25T18:49:34.172Z,4.67
2019-03-25T18:52:06.754Z,4.66
2019-03-25T18:54:40.751Z,4.64
2019-03-25T18:57:13.214Z,4.61
2019-03-25T18:59:47.655Z,4.57
2019-03-25T19:02:21.642Z,4.47
2019-03-25T19:04:56.826Z,4.44
2019-03-25T19:07:29.263Z,4.39
2019-03-25T19:10:03.081Z,4.38
2019-03-25T19:12:35.996Z,4.40
2019-03-25T19:15:09.258Z,4.40
2019-03-25T19:17:41.832Z,4.40
2019-03-25T19:20:14.415Z,4.44
2019-03-25T19:22:46.880Z,4.42
2019-03-25T19:25:19.458Z,4.39
2019-03-25T19:27:52.035Z,4.39
2019-03-25T19:30:24.657Z,4.42
2019-03-25T19:32:56.731Z,4.39
2019-03-25T19:35:30.146Z,4.35
2019-03-25T19:38:02.819Z,4.29
2019-03-25T19:40:34.961Z,4.25
2019-03-25T19:43:07.196Z,4.22
2019-03-25T19:45:40.091Z,4.22
2019-03-25T19:48:12.647Z,4.23
2019-03-25T19:50:45.249Z,4.20
2019-03-25T19:53:19.651Z,4.22
2019-03-25T19:55:52.435Z,4.13
2019-03-25T19:58:28.456Z,4.09
2019-03-25T20:01:02.707Z,4.06
2019-03-25T20:03:35.292Z,3.99
2019-03-25T20:06:09.034Z,3.91
2019-03-25T20:08:45.257Z,3.90
2019-03-25T20:11:18.483Z,3.83
2019-03-25T20:13:51.022Z,3.80
2019-03-25T20:16:23.602Z,3.81
2019-03-25T20:18:56.133Z,3.83
2019-03-25T20:21:28.805Z,3.87
2019-03-25T20:24:02.444Z,3.90
2019-03-25T20:26:36.537Z,3.91
2019-03-25T20:29:09.916Z,3.92
2019-03-25T20:31:45.814Z,3.96
2019-03-25T20:34:20.041Z,3.93
2019-03-25T20:36:55.594Z,3.96
2019-03-25T20:39:31.629Z,3.98
2019-03-25T20:42:06.733Z,4.00
2019-03-25T20:44:40.511Z,3.97
2019-03-25T20:47:16.381Z,3.94
2019-03-25T20:49:52.867Z,3.90
2019-03-25T20:52:25.473Z,3.88
2019-03-25T20:54:59.782Z,3.83
2019-03-25T20:57:34.684Z,3.79
2019-03-25T21:00:12.624Z,3.77
2019-03-25T21:02:48.685Z,3.74
2019-03-25T21:05:24.155Z,3.74
2019-03-25T21:07:58.825Z,3.73
2019-03-25T21:10:41.072Z,3.73
2019-03-25T21:13:17.932Z,3.73
2019-03-25T21:15:53.581Z,3.70
2019-03-25T21:18:27.993Z,3.71
2019-03-25T21:21:02.971Z,3.70
2019-03-25T21:23:36.673Z,3.68
2019-03-25T21:26:12.249Z,3.67
2019-03-25T21:28:52.573Z,3.66
2019-03-25T21:31:27.249Z,3.66
2019-03-25T21:34:00.842Z,3.65
2019-03-25T21:36:33.569Z,3.66
2019-03-25T21:39:08.528Z,3.64
2019-03-25T21:41:41.556Z,3.66
2019-03-25T21:44:17.177Z,3.63
2019-03-25T21:46:52.970Z,3.63
2019-03-25T21:49:25.778Z,3.61
2019-03-25T21:51:58.227Z,3.55
2019-03-25T21:54:30.961Z,3.52
2019-03-25T21:57:03.711Z,3.46
2019-03-25T21:59:36.291Z,3.38
2019-03-25T22:02:16.425Z,3.32
2019-03-25T22:04:52.269Z,3.27
2019-03-25T22:07:25.778Z,3.21
2019-03-25T22:10:00.072Z,3.17
2019-03-25T22:12:33.188Z,3.12
2019-03-25T22:15:09.438Z,3.09
2019-03-25T22:17:43.010Z,3.03
2019-03-25T22:20:18.156Z,2.98
2019-03-25T22:22:51.678Z,2.93
2019-03-25T22:25:24.289Z,2.90
2019-03-25T22:27:57.047Z,2.88
2019-03-25T22:30:33.424Z,2.85
2019-03-25T22:33:07.332Z,2.80
2019-03-25T22:35:40.426Z,2.76
2019-03-25T22:38:15.334Z,2.73
2019-03-25T22:40:49.183Z,2.68
2019-03-25T22:43:21.848Z,2.66
2019-03-25T22:45:56.954Z,2.63
2019-03-25T22:48:31.318Z,2.60
2019-03-25T22:51:04.951Z,2.59
2019-03-25T22:53:38.169Z,2.52
2019-03-25T22:56:10.843Z,2.47
2019-03-25T22:58:43.417Z,2.42
2019-03-25T23:01:16.193Z,2.37
2019-03-25T23:03:48.883Z,2.35
2019-03-25T23:06:21.345Z,2.30
2019-03-25T23:08:53.931Z,2.29
2019-03-25T23:11:26.406Z,2.26
2019-03-25T23:13:58.977Z,2.26
2019-03-25T23:16:31.656Z,2.26
2019-03-25T23:19:04.242Z,2.25
2019-03-25T23:21:37.441Z,2.21
2019-03-25T23:24:10.208Z,2.18
2019-03-25T23:26:42.354Z,2.13
2019-03-25T23:29:14.960Z,2.09
2019-03-25T23:31:47.533Z,2.06
2019-03-25T23:34:19.711Z,2.06
2019-03-25T23:36:52.384Z,2.06
2019-03-25T23:39:25.268Z,1.96
2019-03-25T23:41:58.144Z,1.93
2019-03-25T23:44:30.722Z,1.88
2019-03-25T23:47:03.297Z,1.83
2019-03-25T23:49:36.291Z,1.77
2019-03-25T23:52:08.961Z,1.71
2019-03-25T23:54:41.749Z,1.65
2019-03-25T23:57:14.534Z,1.59
2019-03-25T23:59:47.316Z,1.57
